Sheikhupura Weather



Sheikhupura's Current Weather

Temprature 37.03o few clouds

few clouds

Rain: 0 %

Min Temprature37.03o
Max Temprature37.03o
Humidity28
Wind Speed1.58 m/h
Sun Rise05:14:33
Sun Set19:06:18
Current Time: 24-Jul-2021 16:52:44
Lat/Lon: 31.7131, 73.9783




Sheikhupura's Geo Location



Sheikhupura's Weather Forecast

Time Overall Temp Min Temp Max Temp Humidity Wind Speed Rain
24-Jul-2021 (Sat)
17:00:00 few clouds 37.030 37.030 41.260 28 1.58 m/h 0 %
20:00:00 scattered clouds 37.810 37.810 39.380 30 2.6 m/h 0 %
23:00:00 scattered clouds 37.120 37.120 37.170 37 3.55 m/h 0 %
25-Jul-2021 (Sun)
02:00:00 scattered clouds 35.550 35.550 35.550 46 2.74 m/h 0 %
05:00:00 broken clouds 34.500 34.500 34.500 48 2.27 m/h 0 %
08:00:00 overcast clouds 37.170 37.170 37.170 41 2.15 m/h 0 %
11:00:00 broken clouds 41.470 41.470 41.470 31 1.38 m/h 0 %
14:00:00 broken clouds 43.400 43.400 43.400 24 1.31 m/h 0 %
17:00:00 broken clouds 41.830 41.830 41.830 28 4.25 m/h 0 %
20:00:00 overcast clouds 38.590 38.590 38.590 38 5.22 m/h 0 %
23:00:00 overcast clouds 35.120 35.120 35.120 53 5.83 m/h 0 %
26-Jul-2021 (Mon)
02:00:00 overcast clouds 33.690 33.690 33.690 57 4.93 m/h 0 %
05:00:00 overcast clouds 32.190 32.190 32.190 62 4.89 m/h 0 %
08:00:00 overcast clouds 33.990 33.990 33.990 57 4.42 m/h 0 %
11:00:00 overcast clouds 38.980 38.980 38.980 40 3.16 m/h 0 %
14:00:00 few clouds 42.960 42.960 42.960 29 3.03 m/h 0 %
17:00:00 light rain 37.660 37.660 37.660 42 6.3 m/h 46 %
20:00:00 light rain 35.830 35.830 35.830 48 5.51 m/h 126 %
23:00:00 overcast clouds 33.260 33.260 33.260 60 5.13 m/h 0 %
27-Jul-2021 (Tue)
02:00:00 overcast clouds 30.900 30.900 30.900 71 6.19 m/h 0 %
05:00:00 overcast clouds 29.720 29.720 29.720 76 5.39 m/h 0 %
08:00:00 overcast clouds 33.150 33.150 33.150 55 3.38 m/h 0 %
11:00:00 broken clouds 37.280 37.280 37.280 43 4.17 m/h 0 %
14:00:00 light rain 36.620 36.620 36.620 44 6.09 m/h 11 %
17:00:00 overcast clouds 36.610 36.610 36.610 41 5.47 m/h 0 %
20:00:00 overcast clouds 33.640 33.640 33.640 51 7.06 m/h 0 %
23:00:00 light rain 31.640 31.640 31.640 58 5.89 m/h 46 %
28-Jul-2021 (Wed)
02:00:00 light rain 29.130 29.130 29.130 73 4.94 m/h 203 %
05:00:00 light rain 28.090 28.090 28.090 80 4.07 m/h 232 %
08:00:00 light rain 29.990 29.990 29.990 70 4.72 m/h 56 %
11:00:00 light rain 30.990 30.990 30.990 66 5.46 m/h 27 %
14:00:00 light rain 30.780 30.780 30.780 66 5.52 m/h 18 %
17:00:00 overcast clouds 30.490 30.490 30.490 68 4.8 m/h 0 %
20:00:00 overcast clouds 28.430 28.430 28.430 78 4.13 m/h 0 %
23:00:00 overcast clouds 28.000 28.000 28.000 80 3.45 m/h 0 %
29-Jul-2021 (Thu)
02:00:00 overcast clouds 27.530 27.530 27.530 82 3.12 m/h 0 %
05:00:00 light rain 27.290 27.290 27.290 82 2.14 m/h 16 %
08:00:00 scattered clouds 29.660 29.660 29.660 70 2.65 m/h 0 %
11:00:00 scattered clouds 34.610 34.610 34.610 52 1.7 m/h 0 %
14:00:00 light rain 34.860 34.860 34.860 50 1.06 m/h 36 %

Famous Cities (60)